CMB836 Details

Departure: Kuwait International Airport (OKBK)
Arrival: Ramstein Air Force Base (ETAR) at N/A
Route: RALKA3F RALKA G795 TASMI L602 ALPET UM860 SRT UG8 ULSAB UT334 INB UL746 ODERO T86 MATEL T746 NEPOT L746 EVRIK L850 BUDOP LAMSI L604 SULUS L984 FFM
Notes: USTRANSCOM CONTRACT FLIGHT


Current Weather Information
OKBK 171700Z 33013KT CAVOK 40/03 Q0999 NOSIG
ETAR 171706Z 23007KT 9999 -RA SCT014 BKN029 18/16 A2990 RMK AO2A CIG 014V030 SLP122 $